SBOSBO PIK / EGPK
Speedbird OnlineSpeedbird Online PIK / EGPK

Glasgow Prestwick Airport
01:00 -0.9°C

Location Prestwick, United Kingdom
Latitude: 55.5093994140625
Longitude: -4.586669921875
Web Airport Website | Wikipedia
Altitude 20 Meter / 65 Feet
Distance 542 KM / 337 Miles
from London.
Time Zone UTC 0 hours (Europe/London)
Codes IATA: PIK
ICAO: EGPK
Runways
RunwayLength (m)Surface
031905Asphalt
122986Partial
211905Asphalt
302986Partial
Radio
TypeDescriptionFrequency
APPAPP120.55
ATISATIS121.125
RADARPrestwick Radar129.45
TWRTWR118.15
Live ATC
METAR EGPK 270020Z VRB01KT CAVOK M01/M02 Q1036
TAF TAF EGPK 262255Z 2700/2724 VRB03KT 9999 FEW035 BECMG 2712/2715 22010KT TEMPO 2718/2724 BKN012 PROB30 TEMPO 2718/2723 7000 -RA BKN008
Weather As Of 27 Jan 2023 01:00
Description Clear sky
Wind 2 km/h from North (0°)
Cloud Cover 0%
Precipitation Rain: none, Snow: none
Sunrise 08:20
Sunset 16:41
Rotations During the last 90 days there were
2 flights from LHR



Support Speedbird Online

© 2017-2023 Speedbird Online